NK74 weather

Match Mate Airport
Aurora, New York, United States

Public forecast

Using degrees Fahrenheit for public forecast. Weather courtesy of forecast.io.

METAR (pilot weather report)

Closest report is Ithaca Tompkins Regional Airport, 17.7 nm (32.8 km) SSE. Retrieved 2019/07/21 05:56 UTC (28 minutes ago):

KITH 210556Z AUTO VRB03KT 10SM CLR 26/20 A2983 RMK AO2 SLP090 T02610200 10289 20239 58017

TAF (pilot weather forecast)

Closest forecast is Ithaca Tompkins Regional Airport, 17.7 nm (32.8 km) SSE. Retrieved 2019/07/21 06:22 UTC (2 minutes ago):

TAF KITH 210520Z 2106/2206 24006KT P6SM SCT100 FM211000 29008KT P6SM BKN025 TEMPO 2113/2114 BKN035 FM211400 31012KT P6SM BKN035 FM212300 33005KT P6SM SCT100